createdAt,value
2018-09-20T00:00:21.160Z,81.80
2018-09-20T00:02:55.647Z,81.25
2018-09-20T00:05:30.004Z,82.83
2018-09-20T00:08:04.484Z,83.81
2018-09-20T00:10:39.140Z,83.17
2018-09-20T00:13:13.630Z,82.88
2018-09-20T00:15:48.129Z,82.56
2018-09-20T00:18:22.591Z,81.41
2018-09-20T00:20:57.203Z,81.52
2018-09-20T00:23:32.275Z,81.51
2018-09-20T00:26:07.251Z,81.30
2018-09-20T00:28:41.656Z,81.40
2018-09-20T00:31:15.968Z,81.02
2018-09-20T00:33:50.356Z,81.71
2018-09-20T00:36:24.944Z,82.09
2018-09-20T00:38:59.903Z,81.18
2018-09-20T00:41:34.630Z,83.21
2018-09-20T00:44:10.270Z,83.54
2018-09-20T00:46:45.159Z,82.27
2018-09-20T00:49:19.600Z,82.90
2018-09-20T00:51:54.693Z,82.88
2018-09-20T00:54:29.153Z,82.87
2018-09-20T00:57:03.839Z,82.70
2018-09-20T00:59:38.471Z,81.69
2018-09-20T01:02:13.928Z,82.28
2018-09-20T01:04:48.460Z,81.63
2018-09-20T01:07:22.991Z,81.77
2018-09-20T01:09:57.583Z,81.41
2018-09-20T01:12:31.883Z,82.01
2018-09-20T01:15:07.243Z,83.21
2018-09-20T01:17:41.938Z,83.55
2018-09-20T01:20:17.189Z,83.49
2018-09-20T01:22:51.900Z,84.02
2018-09-20T01:25:26.692Z,82.90
2018-09-20T01:28:01.229Z,81.79
2018-09-20T01:30:35.959Z,81.33
2018-09-20T01:33:10.534Z,81.17
2018-09-20T01:35:45.371Z,80.84
2018-09-20T01:38:20.131Z,80.97
2018-09-20T01:40:54.608Z,80.95
2018-09-20T01:43:29.082Z,80.58
2018-09-20T01:46:03.507Z,80.73
2018-09-20T01:48:39.100Z,81.22
2018-09-20T01:51:13.677Z,80.08
2018-09-20T01:53:48.379Z,80.91
2018-09-20T01:56:22.819Z,81.52
2018-09-20T01:58:57.224Z,83.42
2018-09-20T02:01:31.753Z,84.16
2018-09-20T02:04:06.180Z,84.54
2018-09-20T02:06:40.651Z,84.11
2018-09-20T02:09:15.331Z,83.71
2018-09-20T02:11:49.675Z,83.08
2018-09-20T02:14:24.128Z,82.68
2018-09-20T02:16:58.775Z,81.56
2018-09-20T02:19:33.779Z,81.95
2018-09-20T02:22:08.344Z,82.29
2018-09-20T02:24:42.830Z,81.80
2018-09-20T02:27:18.227Z,82.29
2018-09-20T02:29:52.587Z,82.24
2018-09-20T02:32:27.150Z,81.99
2018-09-20T02:35:02.083Z,82.53
2018-09-20T02:37:36.722Z,82.27
2018-09-20T02:40:11.296Z,82.72
2018-09-20T02:42:45.807Z,83.06
2018-09-20T02:45:20.600Z,82.67
2018-09-20T02:47:55.120Z,82.44
2018-09-20T02:50:29.493Z,81.81
2018-09-20T02:53:04.355Z,82.49
2018-09-20T02:55:38.712Z,82.92
2018-09-20T02:58:13.072Z,82.18
2018-09-20T03:00:47.955Z,81.85
2018-09-20T03:03:22.471Z,81.22
2018-09-20T03:05:56.743Z,81.13
2018-09-20T03:08:31.798Z,81.69
2018-09-20T03:11:06.228Z,81.09
2018-09-20T03:13:40.671Z,81.99
2018-09-20T03:16:15.507Z,81.28
2018-09-20T03:18:50.555Z,81.29
2018-09-20T03:21:24.836Z,81.29
2018-09-20T03:23:59.568Z,81.07
2018-09-20T03:26:33.993Z,81.93
2018-09-20T03:29:08.881Z,81.03
2018-09-20T03:31:43.596Z,81.74
2018-09-20T03:34:18.576Z,81.78
2018-09-20T03:36:53.310Z,81.70
2018-09-20T03:39:27.670Z,81.41
2018-09-20T03:42:02.475Z,81.28
2018-09-20T03:44:37.255Z,81.98
2018-09-20T03:47:11.687Z,82.06
2018-09-20T03:49:46.361Z,81.33
2018-09-20T03:52:20.996Z,82.07
2018-09-20T03:54:55.289Z,81.67
2018-09-20T03:57:29.979Z,82.34
2018-09-20T04:00:04.640Z,82.01
2018-09-20T04:02:39.300Z,81.32
2018-09-20T04:05:14.285Z,82.01
2018-09-20T04:07:49.412Z,82.05
2018-09-20T04:10:24.423Z,81.89
2018-09-20T04:12:59.327Z,82.85
2018-09-20T04:15:33.755Z,82.82
2018-09-20T04:18:08.277Z,82.14
2018-09-20T04:20:43.226Z,82.71
2018-09-20T04:23:18.024Z,82.65
2018-09-20T04:25:52.635Z,82.93
2018-09-20T04:28:27.236Z,82.12
2018-09-20T04:31:02.068Z,82.40
2018-09-20T04:33:36.765Z,83.22
2018-09-20T04:36:11.368Z,84.40
2018-09-20T04:38:46.165Z,83.78
2018-09-20T04:41:20.834Z,82.89
2018-09-20T04:43:55.312Z,82.63
2018-09-20T04:46:30.132Z,83.56
2018-09-20T04:49:04.859Z,82.84
2018-09-20T04:51:39.241Z,83.22
2018-09-20T04:54:13.984Z,83.21
2018-09-20T04:56:48.627Z,82.44
2018-09-20T04:59:23.484Z,83.18
2018-09-20T05:01:58.819Z,83.03
2018-09-20T05:04:33.362Z,83.35
2018-09-20T05:07:07.885Z,83.28
2018-09-20T05:09:43.239Z,82.16
2018-09-20T05:12:17.553Z,82.99
2018-09-20T05:14:51.990Z,81.96
2018-09-20T05:17:26.611Z,82.01
2018-09-20T05:20:01.168Z,82.33
2018-09-20T05:22:36.007Z,82.36
2018-09-20T05:25:13.852Z,82.93
2018-09-20T05:27:52.208Z,82.10
2018-09-20T05:30:26.695Z,82.20
2018-09-20T05:33:01.288Z,82.34
2018-09-20T05:35:36.245Z,82.36
2018-09-20T05:38:11.832Z,82.63
2018-09-20T05:40:46.649Z,82.46
2018-09-20T05:43:21.479Z,83.04
2018-09-20T05:45:56.113Z,82.69
2018-09-20T05:48:30.753Z,82.83
2018-09-20T05:51:05.512Z,82.85
2018-09-20T05:53:40.065Z,82.94
2018-09-20T05:56:14.939Z,83.15
2018-09-20T05:58:52.472Z,83.46
2018-09-20T06:01:26.883Z,83.32
2018-09-20T06:04:01.588Z,84.14
2018-09-20T06:06:37.364Z,83.74
2018-09-20T06:09:12.237Z,84.47
2018-09-20T06:11:47.444Z,83.91
2018-09-20T06:14:22.591Z,83.85
2018-09-20T06:16:57.184Z,84.67
2018-09-20T06:19:31.623Z,84.11
2018-09-20T06:22:06.580Z,84.71
2018-09-20T06:24:41.167Z,83.95
2018-09-20T06:27:15.616Z,83.86
2018-09-20T06:29:50.325Z,84.34
2018-09-20T06:32:25.025Z,84.20
2018-09-20T06:34:59.609Z,84.54
2018-09-20T06:37:34.333Z,84.67
2018-09-20T06:40:09.745Z,84.11
2018-09-20T06:42:44.176Z,83.81
2018-09-20T06:45:18.995Z,85.00
2018-09-20T06:47:53.395Z,84.91
2018-09-20T06:50:28.895Z,83.80
2018-09-20T06:53:03.719Z,82.75
2018-09-20T06:55:39.238Z,83.60
2018-09-20T06:58:13.536Z,83.36
2018-09-20T07:00:48.080Z,82.23
2018-09-20T07:03:22.776Z,82.34
2018-09-20T07:05:57.360Z,81.93
2018-09-20T07:08:31.988Z,81.63
2018-09-20T07:11:07.080Z,79.35
2018-09-20T07:13:42.070Z,80.87
2018-09-20T07:16:17.481Z,82.12
2018-09-20T07:18:52.423Z,81.48
2018-09-20T07:21:26.731Z,82.37
2018-09-20T07:24:02.859Z,79.73
2018-09-20T07:26:37.297Z,78.23
2018-09-20T07:29:12.723Z,78.00
2018-09-20T07:31:47.363Z,78.45
2018-09-20T07:34:21.755Z,78.48
2018-09-20T07:36:56.204Z,79.62
2018-09-20T07:39:31.217Z,79.10
2018-09-20T07:42:05.856Z,77.96
2018-09-20T07:44:40.515Z,78.94
2018-09-20T07:47:15.156Z,77.32
2018-09-20T07:49:50.016Z,77.11
2018-09-20T07:52:24.343Z,77.44
2018-09-20T07:54:58.717Z,75.18
2018-09-20T07:57:33.025Z,73.70
2018-09-20T08:00:07.324Z,73.57
2018-09-20T08:02:41.640Z,71.42
2018-09-20T08:05:16.957Z,74.09
2018-09-20T08:07:51.695Z,69.66
2018-09-20T08:10:26.469Z,71.71
2018-09-20T08:13:01.014Z,70.68
2018-09-20T08:15:36.308Z,68.94
2018-09-20T08:18:11.264Z,66.07
2018-09-20T08:20:49.814Z,66.97
2018-09-20T08:23:24.496Z,65.85
2018-09-20T08:25:59.283Z,64.86
2018-09-20T08:28:33.879Z,64.51
2018-09-20T08:31:08.609Z,64.22
2018-09-20T08:33:43.191Z,62.04
2018-09-20T08:36:17.579Z,63.35
2018-09-20T08:38:53.520Z,62.03
2018-09-20T08:41:27.829Z,62.51
2018-09-20T08:44:02.801Z,61.73
2018-09-20T08:46:37.157Z,58.72
2018-09-20T08:49:11.765Z,58.57
2018-09-20T08:51:46.404Z,57.04
2018-09-20T08:54:21.026Z,57.79
2018-09-20T08:56:55.594Z,57.74
2018-09-20T08:59:30.143Z,56.09
2018-09-20T09:02:05.156Z,58.50
2018-09-20T09:04:40.092Z,56.52
2018-09-20T09:07:15.192Z,56.60
2018-09-20T09:09:51.261Z,52.18
2018-09-20T09:12:25.986Z,54.49
2018-09-20T09:15:00.832Z,54.36
2018-09-20T09:17:35.270Z,52.94
2018-09-20T09:20:10.289Z,55.84
2018-09-20T09:22:45.124Z,51.47
2018-09-20T09:25:19.523Z,53.02
2018-09-20T09:27:54.242Z,50.44
2018-09-20T09:30:28.773Z,49.29
2018-09-20T09:33:04.039Z,51.79
2018-09-20T09:35:38.725Z,49.99
2018-09-20T09:38:13.428Z,49.00
2018-09-20T09:40:48.661Z,49.79
2018-09-20T09:43:23.566Z,51.91
2018-09-20T09:45:58.088Z,47.14
2018-09-20T09:48:32.536Z,45.65
2018-09-20T09:51:07.591Z,47.41
2018-09-20T09:53:42.052Z,47.92
2018-09-20T09:56:16.504Z,46.22
2018-09-20T09:58:51.299Z,45.58
2018-09-20T10:01:26.112Z,48.19
2018-09-20T10:04:00.756Z,45.79
2018-09-20T10:06:35.186Z,44.61
2018-09-20T10:09:10.804Z,46.97
2018-09-20T10:11:45.793Z,45.55
2018-09-20T10:14:20.528Z,43.79
2018-09-20T10:16:55.335Z,49.92
2018-09-20T10:19:29.687Z,48.06
2018-09-20T10:22:04.739Z,43.29
2018-09-20T10:24:39.695Z,44.57
2018-09-20T10:27:14.323Z,43.10
2018-09-20T10:29:48.824Z,44.72
2018-09-20T10:32:23.700Z,45.97
2018-09-20T10:34:58.376Z,44.59
2018-09-20T10:37:34.158Z,47.67
2018-09-20T10:40:09.174Z,46.00
2018-09-20T10:42:43.632Z,45.43
2018-09-20T10:45:18.413Z,41.44
2018-09-20T10:47:53.092Z,41.13
2018-09-20T10:50:27.772Z,44.90
2018-09-20T10:53:02.624Z,41.42
2018-09-20T10:55:37.079Z,44.73
2018-09-20T10:58:11.547Z,42.95
2018-09-20T11:00:46.030Z,40.45
2018-09-20T11:03:20.806Z,40.89
2018-09-20T11:05:55.414Z,42.00
2018-09-20T11:08:30.183Z,43.81
2018-09-20T11:11:05.295Z,41.15
2018-09-20T11:13:39.773Z,39.96
2018-09-20T11:16:14.389Z,42.92
2018-09-20T11:18:49.592Z,44.59
2018-09-20T11:21:24.392Z,42.41
2018-09-20T11:23:59.219Z,42.60
2018-09-20T11:26:34.060Z,44.54
2018-09-20T11:29:08.764Z,41.46
2018-09-20T11:31:43.356Z,45.13
2018-09-20T11:34:17.895Z,44.07
2018-09-20T11:36:52.388Z,48.84
2018-09-20T11:39:27.160Z,42.12
2018-09-20T11:42:02.099Z,43.37
2018-09-20T11:44:36.791Z,40.58
2018-09-20T11:47:11.205Z,44.20
2018-09-20T11:49:45.920Z,41.74
2018-09-20T11:52:20.391Z,41.00
2018-09-20T11:54:55.275Z,43.15
2018-09-20T11:57:29.556Z,41.05
2018-09-20T12:00:04.417Z,38.93
2018-09-20T12:02:39.308Z,39.83
2018-09-20T12:05:13.680Z,41.61
2018-09-20T12:07:48.476Z,44.43
2018-09-20T12:10:22.940Z,45.38
2018-09-20T12:12:57.392Z,42.87
2018-09-20T12:15:32.884Z,40.59
2018-09-20T12:18:07.357Z,40.72
2018-09-20T12:20:42.013Z,43.05
2018-09-20T12:23:16.705Z,40.72
2018-09-20T12:25:51.549Z,39.53
2018-09-20T12:28:26.943Z,42.84
2018-09-20T12:31:01.225Z,42.73
2018-09-20T12:33:36.072Z,41.06
2018-09-20T12:36:11.212Z,38.20
2018-09-20T12:38:46.262Z,37.38
2018-09-20T12:41:21.036Z,36.75
2018-09-20T12:43:56.324Z,44.04
2018-09-20T12:46:31.724Z,37.09
2018-09-20T12:49:06.011Z,39.52
2018-09-20T12:51:40.513Z,38.15
2018-09-20T12:54:15.344Z,40.38
2018-09-20T12:56:49.960Z,36.51
2018-09-20T12:59:24.775Z,38.88
2018-09-20T13:01:59.475Z,39.13
2018-09-20T13:04:34.239Z,38.04
2018-09-20T13:07:09.285Z,37.79
2018-09-20T13:09:43.803Z,37.60
2018-09-20T13:12:18.604Z,40.95
2018-09-20T13:14:53.130Z,41.54
2018-09-20T13:17:28.075Z,35.98
2018-09-20T13:20:03.194Z,39.82
2018-09-20T13:22:38.191Z,37.87
2018-09-20T13:25:12.608Z,37.51
2018-09-20T13:27:47.316Z,39.43
2018-09-20T13:30:21.792Z,36.51
2018-09-20T13:32:56.231Z,40.99
2018-09-20T13:35:30.920Z,38.24
2018-09-20T13:38:06.315Z,35.10
2018-09-20T13:40:41.300Z,35.83
2018-09-20T13:43:16.588Z,38.54
2018-09-20T13:45:54.160Z,39.38
2018-09-20T13:48:29.007Z,43.17
2018-09-20T13:51:03.639Z,43.18
2018-09-20T13:53:38.208Z,40.61
2018-09-20T13:56:12.738Z,42.03
2018-09-20T13:58:47.871Z,43.44
2018-09-20T14:01:22.822Z,38.14
2018-09-20T14:03:57.275Z,39.41
2018-09-20T14:06:31.881Z,37.50
2018-09-20T14:09:39.855Z,39.89
2018-09-20T14:12:14.845Z,34.58
2018-09-20T14:14:49.533Z,40.75
2018-09-20T14:17:23.845Z,37.14
2018-09-20T14:19:58.564Z,39.05
2018-09-20T14:22:33.024Z,39.12
2018-09-20T14:25:07.355Z,37.81
2018-09-20T14:27:41.858Z,34.80
2018-09-20T14:30:16.287Z,38.46
2018-09-20T14:32:50.627Z,38.75
2018-09-20T14:35:25.384Z,40.55
2018-09-20T14:38:00.041Z,35.36
2018-09-20T14:40:34.776Z,37.40
2018-09-20T14:43:09.597Z,37.43
2018-09-20T14:45:44.724Z,38.12
2018-09-20T14:48:19.031Z,41.32
2018-09-20T14:50:53.936Z,39.72
2018-09-20T14:53:28.332Z,42.17
2018-09-20T14:56:02.716Z,41.71
2018-09-20T14:58:37.423Z,42.89
2018-09-20T15:01:12.072Z,44.46
2018-09-20T15:03:46.542Z,42.09
2018-09-20T15:06:21.093Z,41.36
2018-09-20T15:08:55.760Z,45.31
2018-09-20T15:11:30.684Z,42.50
2018-09-20T15:14:05.460Z,40.98
2018-09-20T15:16:39.899Z,41.82
2018-09-20T15:19:14.259Z,43.84
2018-09-20T15:21:48.754Z,43.16
2018-09-20T15:24:23.307Z,41.43
2018-09-20T15:27:00.873Z,43.31
2018-09-20T15:29:36.179Z,41.44
2018-09-20T15:32:10.693Z,43.33
2018-09-20T15:34:45.213Z,41.33
2018-09-20T15:37:20.268Z,42.52
2018-09-20T15:39:55.227Z,42.94
2018-09-20T15:42:30.950Z,42.70
2018-09-20T15:45:06.161Z,43.91
2018-09-20T15:47:41.284Z,46.21
2018-09-20T15:50:16.515Z,45.15
2018-09-20T15:52:50.992Z,47.17
2018-09-20T15:55:25.613Z,44.95
2018-09-20T15:57:59.987Z,44.47
2018-09-20T16:00:35.560Z,46.35
2018-09-20T16:03:10.366Z,47.46
2018-09-20T16:05:47.033Z,44.69
2018-09-20T16:08:21.864Z,45.54
2018-09-20T16:11:04.293Z,46.62
2018-09-20T16:13:39.155Z,46.66
2018-09-20T16:16:13.636Z,48.82
2018-09-20T16:18:48.566Z,48.14
2018-09-20T16:21:23.172Z,47.96
2018-09-20T16:23:57.685Z,49.63
2018-09-20T16:26:36.067Z,47.86
2018-09-20T16:29:52.811Z,49.59
2018-09-20T16:36:02.476Z,52.98
2018-09-20T16:38:48.594Z,53.72
2018-09-20T16:41:29.407Z,54.39
2018-09-20T16:44:04.377Z,56.28
2018-09-20T16:46:39.772Z,54.90
2018-09-20T16:49:15.052Z,58.69
2018-09-20T16:51:49.556Z,56.34
2018-09-20T16:54:24.383Z,58.37
2018-09-20T16:56:59.097Z,57.49
2018-09-20T16:59:33.808Z,57.89
2018-09-20T17:02:08.772Z,57.32
2018-09-20T17:04:43.199Z,60.71
2018-09-20T17:07:18.083Z,60.22
2018-09-20T17:09:52.745Z,61.50
2018-09-20T17:12:27.065Z,62.36
2018-09-20T17:15:02.176Z,62.65
2018-09-20T17:17:37.188Z,61.37
2018-09-20T17:20:11.665Z,61.90
2018-09-20T17:22:47.270Z,61.80
2018-09-20T17:25:22.267Z,61.62
2018-09-20T17:27:56.964Z,62.57
2018-09-20T17:30:31.765Z,62.54
2018-09-20T17:33:06.592Z,62.18
2018-09-20T17:35:41.388Z,62.21
2018-09-20T17:38:16.035Z,62.50
2018-09-20T17:40:57.632Z,63.54
2018-09-20T17:44:07.659Z,64.21
2018-09-20T17:46:42.244Z,64.52
2018-09-20T17:49:16.836Z,64.11
2018-09-20T17:51:51.906Z,64.32
2018-09-20T17:54:26.598Z,65.08
2018-09-20T17:57:02.568Z,65.12
2018-09-20T17:59:37.174Z,65.89
2018-09-20T18:02:11.895Z,65.86
2018-09-20T18:04:47.247Z,66.40
2018-09-20T18:07:21.718Z,66.39
2018-09-20T18:09:56.295Z,66.88
2018-09-20T18:12:31.320Z,67.27
2018-09-20T18:15:06.208Z,67.16
2018-09-20T18:17:40.845Z,67.83
2018-09-20T18:20:16.344Z,67.48
2018-09-20T18:22:50.684Z,69.06
2018-09-20T18:25:25.379Z,68.42
2018-09-20T18:27:59.776Z,68.39
2018-09-20T18:30:34.656Z,68.55
2018-09-20T18:33:09.633Z,68.44
2018-09-20T18:35:44.097Z,68.25
2018-09-20T18:38:19.171Z,68.28
2018-09-20T18:40:53.799Z,68.65
2018-09-20T18:43:28.271Z,69.24
2018-09-20T18:46:02.998Z,69.39
2018-09-20T18:48:37.916Z,69.74
2018-09-20T18:51:12.322Z,69.75
2018-09-20T18:53:46.641Z,70.35
2018-09-20T18:56:21.048Z,70.49
2018-09-20T18:58:55.711Z,70.03
2018-09-20T19:01:30.124Z,70.39
2018-09-20T19:04:04.563Z,70.84
2018-09-20T19:06:39.308Z,71.05
2018-09-20T19:09:13.737Z,71.55
2018-09-20T19:11:48.359Z,71.40
2018-09-20T19:14:22.844Z,71.72
2018-09-20T19:16:57.476Z,71.45
2018-09-20T19:19:31.843Z,71.55
2018-09-20T19:22:06.405Z,71.98
2018-09-20T19:24:41.073Z,72.18
2018-09-20T19:27:16.522Z,72.79
2018-09-20T19:29:51.028Z,73.33
2018-09-20T19:32:25.357Z,72.80
2018-09-20T19:35:00.156Z,73.28
2018-09-20T19:37:34.631Z,72.36
2018-09-20T19:40:09.800Z,72.87
2018-09-20T19:42:44.959Z,73.16
2018-09-20T19:45:19.260Z,73.20
2018-09-20T19:47:53.776Z,73.48
2018-09-20T19:50:28.297Z,73.58
2018-09-20T19:53:02.656Z,73.84
2018-09-20T19:55:37.440Z,74.20
2018-09-20T19:58:11.881Z,74.14
2018-09-20T20:00:46.496Z,74.20
2018-09-20T20:03:20.881Z,74.49
2018-09-20T20:05:58.459Z,74.31
2018-09-20T20:08:35.876Z,74.85
2018-09-20T20:11:10.500Z,74.87
2018-09-20T20:13:45.192Z,74.83
2018-09-20T20:16:19.834Z,75.09
2018-09-20T20:18:54.519Z,74.54
2018-09-20T20:21:29.614Z,74.97
2018-09-20T20:24:04.548Z,74.72
2018-09-20T20:26:39.303Z,75.07
2018-09-20T20:29:13.626Z,75.03
2018-09-20T20:31:48.462Z,75.03
2018-09-20T20:34:23.124Z,75.46
2018-09-20T20:36:57.591Z,75.43
2018-09-20T20:39:32.062Z,75.01
2018-09-20T20:42:06.700Z,75.98
2018-09-20T20:44:41.201Z,75.44
2018-09-20T20:47:15.533Z,74.95
2018-09-20T20:49:49.927Z,76.04
2018-09-20T20:52:24.248Z,75.80
2018-09-20T20:54:58.529Z,76.38
2018-09-20T20:57:33.176Z,75.90
2018-09-20T21:00:07.729Z,76.22
2018-09-20T21:02:42.498Z,76.05
2018-09-20T21:05:17.076Z,76.65
2018-09-20T21:07:52.320Z,76.82
2018-09-20T21:10:27.640Z,77.00
2018-09-20T21:13:02.066Z,76.58
2018-09-20T21:15:36.631Z,76.49
2018-09-20T21:18:10.913Z,76.79
2018-09-20T21:20:45.340Z,77.43
2018-09-20T21:23:19.960Z,77.59
2018-09-20T21:25:54.527Z,77.66
2018-09-20T21:28:28.956Z,76.35
2018-09-20T21:31:03.838Z,77.40
2018-09-20T21:33:38.197Z,77.70
2018-09-20T21:36:13.000Z,77.21
2018-09-20T21:38:47.841Z,76.81
2018-09-20T21:41:22.176Z,77.11
2018-09-20T21:43:56.680Z,77.16
2018-09-20T21:46:31.245Z,77.13
2018-09-20T21:49:06.287Z,77.71
2018-09-20T21:51:41.152Z,77.89
2018-09-20T21:54:15.939Z,78.95
2018-09-20T21:56:50.627Z,78.55
2018-09-20T21:59:25.057Z,78.24
2018-09-20T22:02:03.363Z,79.04
2018-09-20T22:04:38.017Z,78.83
2018-09-20T22:07:12.998Z,78.64
2018-09-20T22:09:47.388Z,78.93
2018-09-20T22:12:22.148Z,78.53
2018-09-20T22:14:57.048Z,79.10
2018-09-20T22:17:31.608Z,79.03
2018-09-20T22:20:06.449Z,77.90
2018-09-20T22:22:40.781Z,78.02
2018-09-20T22:25:15.817Z,78.01
2018-09-20T22:27:50.513Z,77.15
2018-09-20T22:30:25.104Z,77.15
2018-09-20T22:32:59.427Z,78.43
2018-09-20T22:35:33.860Z,79.01
2018-09-20T22:38:08.558Z,78.96
2018-09-20T22:40:43.084Z,78.97
2018-09-20T22:43:17.783Z,78.69
2018-09-20T22:45:52.362Z,79.53
2018-09-20T22:48:26.799Z,79.65
2018-09-20T22:51:01.212Z,78.77
2018-09-20T22:53:35.628Z,79.58
2018-09-20T22:56:09.967Z,79.87
2018-09-20T22:58:44.744Z,78.68
2018-09-20T23:01:19.616Z,78.80
2018-09-20T23:03:54.436Z,79.80
2018-09-20T23:06:29.572Z,78.74
2018-09-20T23:09:05.632Z,78.96
2018-09-20T23:11:40.766Z,79.47
2018-09-20T23:14:15.072Z,79.45
2018-09-20T23:16:49.351Z,79.92
2018-09-20T23:19:24.271Z,78.94
2018-09-20T23:21:58.825Z,79.24
2018-09-20T23:24:33.273Z,78.90
2018-09-20T23:27:08.039Z,79.20
2018-09-20T23:29:42.492Z,78.75
2018-09-20T23:32:16.817Z,79.49
2018-09-20T23:34:51.722Z,78.80
2018-09-20T23:37:26.348Z,79.04
2018-09-20T23:40:01.024Z,78.63
2018-09-20T23:42:35.742Z,79.37
2018-09-20T23:45:10.173Z,78.69
2018-09-20T23:47:44.684Z,78.78
2018-09-20T23:50:19.531Z,79.48
2018-09-20T23:52:54.253Z,79.68
2018-09-20T23:55:29.080Z,80.03
2018-09-20T23:58:04.367Z,79.20
